Time;durP1;ratioP1;P1;durP2;ratioP2;P2;SDS_P1;SDS_P2;PMS_P1;PMS_P2;Temp;Humidity;BMP_temperature;BMP_pressure;BME280_temperature;BME280_humidity;BME280_pressure;Samples;Min_cycle;Max_cycle;Signal;HPM_P1;HPM_P2
2021/06/30 00:02:07;;;;;;;3.95;2.95;;;;;;;;;;5091164;28;20112;-75
2021/06/30 00:04:33;;;;;;;5.22;2.90;;;;;;;;;;5092866;28;20043;-75
2021/06/30 00:06:59;;;;;;;5.38;3.08;;;;;;;;;;5085736;28;20526;-75
2021/06/30 00:09:24;;;;;;;5.20;3.38;;;;;;;;;;5072882;28;20032;-76
2021/06/30 00:11:50;;;;;;;6.68;2.70;;;;;;;;;;5093374;28;20024;-75
2021/06/30 00:14:53;;;;;;;4.97;2.97;;;;;;;;;;5092964;28;20035;-75
2021/06/30 00:17:19;;;;;;;5.25;2.92;;;;;;;;;;5080936;28;20067;-75
2021/06/30 00:19:46;;;;;;;5.85;2.80;;;;;;;;;;5073506;28;20446;-76
2021/06/30 00:22:12;;;;;;;6.15;2.97;;;;;;;;;;5090890;28;20491;-75
2021/06/30 00:24:37;;;;;;;6.10;2.83;;;;;;;;;;5081566;28;20063;-76
2021/06/30 00:27:05;;;;;;;8.18;3.10;;;;;;;;;;5062096;28;20454;-75
2021/06/30 00:29:30;;;;;;;6.30;2.85;;;;;;;;;;5073426;28;20036;-76
2021/06/30 00:31:56;;;;;;;6.47;3.30;;;;;;;;;;5073436;28;20115;-76
2021/06/30 00:34:22;;;;;;;5.25;2.75;;;;;;;;;;5071356;28;20067;-75
2021/06/30 00:36:48;;;;;;;6.55;2.95;;;;;;;;;;5051946;28;20147;-76
2021/06/30 00:39:19;;;;;;;5.53;3.10;;;;;;;;;;5051878;28;20025;-75
2021/06/30 00:41:45;;;;;;;4.18;2.95;;;;;;;;;;5069750;28;20529;-76
2021/06/30 00:44:12;;;;;;;4.60;3.03;;;;;;;;;;5057191;28;20040;-76
2021/06/30 00:46:40;;;;;;;8.30;3.05;;;;;;;;;;5056264;28;20016;-75
2021/06/30 00:49:06;;;;;;;3.85;2.70;;;;;;;;;;5070703;28;20032;-75
2021/06/30 00:51:32;;;;;;;3.88;2.65;;;;;;;;;;5063687;28;20040;-75
2021/06/30 00:53:58;;;;;;;5.15;2.83;;;;;;;;;;5064705;28;20032;-75
2021/06/30 00:56:27;;;;;;;4.05;2.50;;;;;;;;;;5062096;28;20029;-75
2021/06/30 00:58:57;;;;;;;6.07;3.00;;;;;;;;;;5060198;28;20028;-76
2021/06/30 01:01:39;;;;;;;4.80;3.08;;;;;;;;;;5058431;28;20461;-75
2021/06/30 01:04:05;;;;;;;4.78;2.80;;;;;;;;;;5038019;28;20028;-76
2021/06/30 01:06:31;;;;;;;5.40;3.20;;;;;;;;;;5059806;28;20024;-75
2021/06/30 01:09:34;;;;;;;7.53;2.85;;;;;;;;;;5045050;28;20028;-75
2021/06/30 01:12:00;;;;;;;5.57;2.85;;;;;;;;;;5071427;28;20111;-75
2021/06/30 01:14:32;;;;;;;4.78;2.80;;;;;;;;;;5073055;28;20032;-75
2021/06/30 01:17:01;;;;;;;4.68;2.30;;;;;;;;;;5067337;28;20447;-75
2021/06/30 01:19:27;;;;;;;9.02;2.90;;;;;;;;;;5052844;28;20025;-75
2021/06/30 01:22:02;;;;;;;6.82;2.70;;;;;;;;;;5053195;28;20025;-76
2021/06/30 01:24:27;;;;;;;8.20;3.33;;;;;;;;;;5059641;28;20058;-75
2021/06/30 01:26:53;;;;;;;5.25;3.55;;;;;;;;;;5084748;28;20029;-75
2021/06/30 01:29:25;;;;;;;5.43;3.30;;;;;;;;;;5076110;28;20037;-75
2021/06/30 01:31:51;;;;;;;6.50;3.22;;;;;;;;;;5076872;28;20024;-75
2021/06/30 01:34:17;;;;;;;9.07;3.53;;;;;;;;;;5090271;28;20482;-75
2021/06/30 01:36:56;;;;;;;6.75;2.95;;;;;;;;;;5092692;28;20020;-75
2021/06/30 01:39:23;;;;;;;4.65;3.17;;;;;;;;;;5076840;28;20471;-75
2021/06/30 01:41:49;;;;;;;7.03;3.13;;;;;;;;;;5080776;28;20029;-75
2021/06/30 01:44:37;;;;;;;4.80;2.90;;;;;;;;;;5057598;28;20435;-75
2021/06/30 01:47:02;;;;;;;4.85;2.80;;;;;;;;;;5081637;28;20394;-75
2021/06/30 01:49:28;;;;;;;3.65;2.60;;;;;;;;;;5080200;28;20119;-75
2021/06/30 01:52:04;;;;;;;6.35;2.63;;;;;;;;;;5092590;28;20360;-75
2021/06/30 01:54:30;;;;;;;8.00;2.90;;;;;;;;;;5095540;28;20055;-75
2021/06/30 01:56:55;;;;;;;8.38;2.88;;;;;;;;;;5091373;28;20464;-70
2021/06/30 01:59:21;;;;;;;6.35;3.20;;;;;;;;;;5056868;28;20051;-75
2021/06/30 02:01:46;;;;;;;8.50;3.65;;;;;;;;;;5090119;28;20053;-72
2021/06/30 02:04:13;;;;;;;4.95;3.00;;;;;;;;;;5081751;28;20107;-72
2021/06/30 02:06:44;;;;;;;7.40;3.38;;;;;;;;;;5077662;28;20025;-72
2021/06/30 02:09:11;;;;;;;6.22;3.28;;;;;;;;;;5095892;28;20020;-72
2021/06/30 02:11:39;;;;;;;6.82;3.38;;;;;;;;;;5088830;28;20150;-72
2021/06/30 02:14:07;;;;;;;9.10;2.67;;;;;;;;;;5093547;28;20035;-72
2021/06/30 02:16:35;;;;;;;6.40;2.97;;;;;;;;;;5090582;28;20113;-72
2021/06/30 02:19:05;;;;;;;6.32;3.20;;;;;;;;;;5095392;28;20024;-70
2021/06/30 02:21:34;;;;;;;6.30;2.97;;;;;;;;;;5096289;28;20028;-70
2021/06/30 02:24:00;;;;;;;5.45;3.28;;;;;;;;;;5094751;28;20024;-70
2021/06/30 02:26:27;;;;;;;6.45;3.10;;;;;;;;;;5075625;28;20037;-70
2021/06/30 02:28:53;;;;;;;4.97;2.83;;;;;;;;;;5074259;28;20032;-70
2021/06/30 02:31:18;;;;;;;6.03;2.97;;;;;;;;;;5074390;28;20032;-70
2021/06/30 02:33:58;;;;;;;4.60;3.03;;;;;;;;;;5075330;28;20016;-70
2021/06/30 02:36:23;;;;;;;3.85;2.90;;;;;;;;;;5055628;28;20025;-70
2021/06/30 02:38:49;;;;;;;4.30;3.08;;;;;;;;;;5054173;28;20075;-70
2021/06/30 02:41:15;;;;;;;4.68;2.85;;;;;;;;;;5063254;28;20476;-69
2021/06/30 02:43:41;;;;;;;4.30;3.22;;;;;;;;;;5049404;28;20020;-69
2021/06/30 02:46:08;;;;;;;7.03;3.15;;;;;;;;;;5074104;28;20024;-70
2021/06/30 02:49:07;;;;;;;5.53;3.28;;;;;;;;;;5068812;28;20461;-69
2021/06/30 02:51:32;;;;;;;5.60;3.22;;;;;;;;;;5075456;28;20016;-69
2021/06/30 02:53:58;;;;;;;4.82;2.60;;;;;;;;;;5071306;28;20418;-69
2021/06/30 02:56:25;;;;;;;6.20;2.67;;;;;;;;;;5074921;28;20032;-70
2021/06/30 02:58:51;;;;;;;6.47;2.70;;;;;;;;;;5074264;28;20021;-70
2021/06/30 03:01:17;;;;;;;3.60;2.55;;;;;;;;;;5073983;28;20020;-70
2021/06/30 03:03:43;;;;;;;5.70;2.67;;;;;;;;;;5074533;28;20017;-70
2021/06/30 03:06:09;;;;;;;7.60;3.08;;;;;;;;;;5072469;28;20040;-69
2021/06/30 03:08:34;;;;;;;9.70;2.78;;;;;;;;;;5075075;28;20468;-70
2021/06/30 03:11:00;;;;;;;7.80;2.42;;;;;;;;;;5074404;28;20037;-69
2021/06/30 03:13:26;;;;;;;11.70;3.20;;;;;;;;;;5073532;28;20036;-70
2021/06/30 03:15:51;;;;;;;5.78;3.40;;;;;;;;;;5072278;28;20103;-70
2021/06/30 03:18:35;;;;;;;7.88;3.00;;;;;;;;;;5073640;28;20090;-70
2021/06/30 03:21:00;;;;;;;6.72;3.20;;;;;;;;;;5072096;28;20101;-69
2021/06/30 03:23:26;;;;;;;4.03;2.72;;;;;;;;;;5074324;28;20471;-70
2021/06/30 03:26:05;;;;;;;8.70;2.97;;;;;;;;;;5066658;28;20066;-70
2021/06/30 03:28:30;;;;;;;5.53;2.90;;;;;;;;;;5064297;28;20047;-70
2021/06/30 03:30:56;;;;;;;10.52;3.05;;;;;;;;;;5069276;28;20020;-70
2021/06/30 03:33:21;;;;;;;6.72;2.92;;;;;;;;;;5074120;28;20027;-75
2021/06/30 03:35:47;;;;;;;9.23;3.00;;;;;;;;;;5074697;28;20021;-75
2021/06/30 03:38:13;;;;;;;8.05;3.10;;;;;;;;;;5073203;28;20115;-75
2021/06/30 03:40:38;;;;;;;5.13;3.03;;;;;;;;;;5071987;28;20078;-75
2021/06/30 03:43:03;;;;;;;5.78;3.47;;;;;;;;;;5064975;28;20025;-75
2021/06/30 03:45:30;;;;;;;5.35;2.90;;;;;;;;;;5073810;28;20020;-75
2021/06/30 03:47:56;;;;;;;4.22;3.17;;;;;;;;;;5073495;28;20029;-75
2021/06/30 03:50:21;;;;;;;6.05;2.85;;;;;;;;;;5072515;28;20066;-75
2021/06/30 03:52:47;;;;;;;4.47;3.22;;;;;;;;;;5058916;28;20029;-75
2021/06/30 03:55:12;;;;;;;5.45;3.45;;;;;;;;;;5052843;28;20120;-75
2021/06/30 03:57:38;;;;;;;7.88;3.08;;;;;;;;;;5057327;28;20107;-75
2021/06/30 04:00:07;;;;;;;5.70;3.05;;;;;;;;;;5066803;28;20032;-76
2021/06/30 04:02:33;;;;;;;7.18;3.80;;;;;;;;;;5054054;28;20059;-75
2021/06/30 04:04:59;;;;;;;6.50;3.40;;;;;;;;;;5053996;28;20033;-75
2021/06/30 04:07:24;;;;;;;5.63;3.20;;;;;;;;;;5059503;28;20020;-75
2021/06/30 04:09:50;;;;;;;6.50;3.35;;;;;;;;;;5072140;28;20459;-75
2021/06/30 04:12:15;;;;;;;6.55;3.58;;;;;;;;;;5071707;28;20050;-75
2021/06/30 04:14:41;;;;;;;6.93;3.47;;;;;;;;;;5071003;28;20032;-75
2021/06/30 04:17:06;;;;;;;7.88;3.63;;;;;;;;;;5072527;28;20024;-75
2021/06/30 04:19:32;;;;;;;5.93;4.38;;;;;;;;;;5059650;28;20025;-75
2021/06/30 04:21:57;;;;;;;7.00;3.78;;;;;;;;;;5053840;28;20078;-75
2021/06/30 04:24:23;;;;;;;8.95;6.03;;;;;;;;;;5052647;28;20025;-76
2021/06/30 04:26:48;;;;;;;6.22;4.07;;;;;;;;;;5076620;28;20496;-75
2021/06/30 04:29:14;;;;;;;6.32;3.83;;;;;;;;;;5092097;28;20103;-76
2021/06/30 04:31:40;;;;;;;5.07;3.50;;;;;;;;;;5089526;28;20019;-76
2021/06/30 04:34:05;;;;;;;4.55;3.30;;;;;;;;;;5091835;28;20091;-75
2021/06/30 04:36:30;;;;;;;8.43;3.55;;;;;;;;;;5091300;28;20035;-75
2021/06/30 04:38:56;;;;;;;5.25;3.42;;;;;;;;;;5088515;28;20035;-75
2021/06/30 04:41:42;;;;;;;4.85;3.10;;;;;;;;;;5085186;28;20444;-75
2021/06/30 04:44:07;;;;;;;5.85;3.17;;;;;;;;;;5082409;28;20024;-75
2021/06/30 04:46:35;;;;;;;7.63;3.15;;;;;;;;;;5083456;28;20390;-75
2021/06/30 04:49:00;;;;;;;5.35;2.70;;;;;;;;;;5078886;28;20023;-75
2021/06/30 04:51:27;;;;;;;9.00;2.72;;;;;;;;;;5087237;28;20032;-72
2021/06/30 04:53:52;;;;;;;4.70;2.63;;;;;;;;;;5073640;28;20029;-72
2021/06/30 04:56:29;;;;;;;2.72;2.05;;;;;;;;;;5076073;28;20493;-72
2021/06/30 04:58:55;;;;;;;5.35;2.40;;;;;;;;;;5087537;28;20475;-72
2021/06/30 05:01:23;;;;;;;3.22;2.38;;;;;;;;;;5092632;28;20028;-73
2021/06/30 05:03:49;;;;;;;4.45;2.17;;;;;;;;;;5074614;28;20035;-72
2021/06/30 05:06:16;;;;;;;3.28;2.17;;;;;;;;;;5092647;28;20024;-73
2021/06/30 05:08:42;;;;;;;4.80;2.05;;;;;;;;;;5076271;28;20025;-73
2021/06/30 05:11:15;;;;;;;3.38;2.15;;;;;;;;;;5078218;28;20027;-73
2021/06/30 05:13:41;;;;;;;6.38;2.40;;;;;;;;;;5092901;28;20028;-73
2021/06/30 05:16:13;;;;;;;3.08;2.15;;;;;;;;;;5093301;28;20103;-73
2021/06/30 05:18:38;;;;;;;3.25;1.90;;;;;;;;;;5083968;28;20138;-73
2021/06/30 05:21:04;;;;;;;3.72;2.35;;;;;;;;;;5081817;28;20484;-73
2021/06/30 05:23:30;;;;;;;6.55;2.15;;;;;;;;;;5072484;28;20029;-73
2021/06/30 05:25:55;;;;;;;3.15;2.15;;;;;;;;;;5072141;28;20040;-73
2021/06/30 05:28:23;;;;;;;4.10;2.22;;;;;;;;;;5072486;28;20063;-73
2021/06/30 05:30:49;;;;;;;5.10;2.20;;;;;;;;;;5072019;28;20484;-73
2021/06/30 05:33:15;;;;;;;3.75;2.17;;;;;;;;;;5072368;28;20036;-73
2021/06/30 05:36:04;;;;;;;3.28;2.08;;;;;;;;;;5072620;28;20031;-72
2021/06/30 05:38:29;;;;;;;3.80;2.15;;;;;;;;;;5072785;28;20403;-73
2021/06/30 05:40:54;;;;;;;3.95;2.08;;;;;;;;;;5072428;28;20028;-73
2021/06/30 05:43:20;;;;;;;2.67;2.10;;;;;;;;;;5072248;28;20483;-73
2021/06/30 05:45:47;;;;;;;3.17;1.95;;;;;;;;;;5059276;28;20023;-73
2021/06/30 05:48:13;;;;;;;6.47;2.35;;;;;;;;;;5065797;28;20107;-73
2021/06/30 05:50:58;;;;;;;4.22;2.38;;;;;;;;;;5072300;28;20064;-73
2021/06/30 05:53:23;;;;;;;3.20;2.00;;;;;;;;;;5072334;28;20372;-72
2021/06/30 05:55:49;;;;;;;6.22;2.10;;;;;;;;;;5072117;28;20021;-72
2021/06/30 05:58:16;;;;;;;2.85;1.90;;;;;;;;;;5072056;28;20464;-73
2021/06/30 06:00:42;;;;;;;2.92;1.92;;;;;;;;;;5072531;28;20030;-73
2021/06/30 06:03:09;;;;;;;3.50;1.80;;;;;;;;;;5072030;28;20099;-73
2021/06/30 06:05:35;;;;;;;3.17;2.08;;;;;;;;;;5072314;28;20430;-73
2021/06/30 06:08:00;;;;;;;4.20;1.80;;;;;;;;;;5072370;28;20029;-73
2021/06/30 06:10:42;;;;;;;3.47;2.03;;;;;;;;;;5072201;28;20032;-73
2021/06/30 06:13:08;;;;;;;3.00;1.65;;;;;;;;;;5072521;28;20021;-73
2021/06/30 06:15:34;;;;;;;2.72;2.00;;;;;;;;;;5074416;28;20436;-73
2021/06/30 06:18:01;;;;;;;2.60;1.90;;;;;;;;;;5075372;28;20052;-73
2021/06/30 06:20:26;;;;;;;3.33;2.10;;;;;;;;;;5075298;28;20037;-72
2021/06/30 06:22:52;;;;;;;4.72;2.15;;;;;;;;;;5075630;28;20032;-72
2021/06/30 06:25:35;;;;;;;4.20;2.00;;;;;;;;;;5074889;28;20534;-72
2021/06/30 06:28:00;;;;;;;2.97;1.80;;;;;;;;;;5054698;28;20158;-73
2021/06/30 06:30:30;;;;;;;4.32;2.20;;;;;;;;;;5062359;28;20028;-72
2021/06/30 06:33:15;;;;;;;3.90;1.80;;;;;;;;;;5056626;28;20086;-72
2021/06/30 06:35:44;;;;;;;3.65;1.83;;;;;;;;;;5075675;28;20028;-72
2021/06/30 06:38:10;;;;;;;2.63;1.60;;;;;;;;;;5075626;28;20032;-72
2021/06/30 06:40:38;;;;;;;2.42;1.60;;;;;;;;;;5063396;28;20065;-72
2021/06/30 06:43:03;;;;;;;4.25;2.10;;;;;;;;;;5075520;28;20384;-72
2021/06/30 06:45:29;;;;;;;3.40;1.65;;;;;;;;;;5075419;28;20020;-72
2021/06/30 06:47:55;;;;;;;4.57;1.65;;;;;;;;;;5074226;28;20494;-72
2021/06/30 06:50:21;;;;;;;2.17;1.52;;;;;;;;;;5060238;28;20027;-72
2021/06/30 06:52:55;;;;;;;3.75;1.80;;;;;;;;;;5074585;28;20115;-72
2021/06/30 06:55:20;;;;;;;2.78;1.70;;;;;;;;;;5073696;28;20491;-72
2021/06/30 06:57:46;;;;;;;2.53;1.70;;;;;;;;;;5065162;28;20024;-72
2021/06/30 07:00:12;;;;;;;3.67;1.60;;;;;;;;;;5061951;28;20028;-72
2021/06/30 07:02:37;;;;;;;5.25;1.98;;;;;;;;;;5074445;28;20025;-72
2021/06/30 07:05:04;;;;;;;3.00;1.90;;;;;;;;;;5070325;28;20384;-74
2021/06/30 07:07:31;;;;;;;3.70;2.08;;;;;;;;;;5058085;28;20025;-73
2021/06/30 07:09:56;;;;;;;2.17;1.60;;;;;;;;;;5067366;28;20098;-73
2021/06/30 07:12:22;;;;;;;2.75;1.40;;;;;;;;;;5074537;28;20024;-74
2021/06/30 07:14:50;;;;;;;2.35;1.70;;;;;;;;;;5074844;28;20039;-74
2021/06/30 07:17:15;;;;;;;2.28;1.70;;;;;;;;;;5074537;28;20032;-73
2021/06/30 07:19:41;;;;;;;3.15;1.80;;;;;;;;;;5074214;28;20154;-71
2021/06/30 07:22:06;;;;;;;2.38;1.90;;;;;;;;;;5066765;28;20029;-72
2021/06/30 07:24:32;;;;;;;2.97;1.70;;;;;;;;;;5074272;28;20036;-73
2021/06/30 07:26:58;;;;;;;3.88;1.90;;;;;;;;;;5085606;28;20072;-73
2021/06/30 07:29:24;;;;;;;4.25;1.73;;;;;;;;;;5092833;28;20415;-74
2021/06/30 07:31:58;;;;;;;2.15;1.77;;;;;;;;;;5094535;28;20544;-74
2021/06/30 07:34:24;;;;;;;9.18;1.80;;;;;;;;;;5093593;28;20034;-74
2021/06/30 07:36:50;;;;;;;3.80;1.90;;;;;;;;;;5079916;28;20032;-72
2021/06/30 07:39:16;;;;;;;3.65;2.05;;;;;;;;;;5073128;28;20399;-70
2021/06/30 07:41:45;;;;;;;3.15;1.67;;;;;;;;;;5074420;28;20017;-73
2021/06/30 07:44:11;;;;;;;4.32;1.80;;;;;;;;;;5072647;28;20388;-72
2021/06/30 07:46:37;;;;;;;9.52;2.25;;;;;;;;;;5075339;28;20028;-74
2021/06/30 07:49:02;;;;;;;4.80;1.83;;;;;;;;;;5077199;28;20422;-76
2021/06/30 07:51:28;;;;;;;3.25;1.80;;;;;;;;;;5058339;28;20079;-72
2021/06/30 07:53:53;;;;;;;3.13;1.80;;;;;;;;;;5093190;28;20020;-73
2021/06/30 07:56:33;;;;;;;3.47;2.00;;;;;;;;;;5081503;28;20039;-73
2021/06/30 07:59:00;;;;;;;3.50;2.25;;;;;;;;;;5076930;28;20052;-75
2021/06/30 08:01:28;;;;;;;6.75;2.00;;;;;;;;;;5084129;28;20024;-73
2021/06/30 08:03:53;;;;;;;4.30;1.63;;;;;;;;;;5073952;28;20032;-72
2021/06/30 08:06:19;;;;;;;3.42;1.70;;;;;;;;;;5081467;28;20391;-74
2021/06/30 08:08:44;;;;;;;2.25;1.60;;;;;;;;;;5076969;28;20043;-73
2021/06/30 08:11:11;;;;;;;3.05;1.80;;;;;;;;;;5079523;28;20066;-74
2021/06/30 08:13:36;;;;;;;2.47;1.90;;;;;;;;;;5089209;28;20107;-73
2021/06/30 08:16:04;;;;;;;3.70;1.90;;;;;;;;;;5073991;28;20119;-72
2021/06/30 08:18:29;;;;;;;2.97;2.00;;;;;;;;;;5093526;28;20024;-72
2021/06/30 08:21:23;;;;;;;4.28;1.83;;;;;;;;;;5086735;28;20467;-72
2021/06/30 08:23:49;;;;;;;;;;;;;;;;;;5073497;28;20368;-73
2021/06/30 08:26:14;;;;;;;3.30;1.77;;;;;;;;;;5081311;28;19938;-74
2021/06/30 08:28:40;;;;;;;2.80;1.80;;;;;;;;;;5088275;28;20036;-74
2021/06/30 08:31:14;;;;;;;3.45;1.90;;;;;;;;;;5087481;28;20031;-74
2021/06/30 08:33:39;;;;;;;6.90;2.03;;;;;;;;;;5090984;28;20479;-74
2021/06/30 08:36:07;;;;;;;3.17;2.20;;;;;;;;;;5084643;28;20031;-73
2021/06/30 08:38:33;;;;;;;2.65;1.58;;;;;;;;;;5085266;28;20024;-73
2021/06/30 08:41:22;;;;;;;4.18;1.90;;;;;;;;;;5073563;28;20038;-73
2021/06/30 08:43:47;;;;;;;4.80;1.80;;;;;;;;;;5092749;28;20031;-74
2021/06/30 08:46:27;;;;;;;2.50;1.67;;;;;;;;;;5089218;28;20020;-74
2021/06/30 08:48:59;;;;;;;4.13;1.58;;;;;;;;;;5092503;28;20032;-73
2021/06/30 08:51:28;;;;;;;2.85;1.70;;;;;;;;;;5090846;28;20505;-75
2021/06/30 08:53:55;;;;;;;5.50;1.90;;;;;;;;;;5093112;28;20028;-75
2021/06/30 08:56:30;;;;;;;2.85;1.70;;;;;;;;;;5087621;28;20465;-73
2021/06/30 08:58:56;;;;;;;4.88;1.98;;;;;;;;;;5073268;28;20372;-74
2021/06/30 09:01:24;;;;;;;2.10;1.70;;;;;;;;;;5080484;28;20028;-72
2021/06/30 09:03:50;;;;;;;3.33;1.80;;;;;;;;;;5088450;28;20020;-73
2021/06/30 09:06:18;;;;;;;3.97;1.90;;;;;;;;;;5072894;28;20024;-73
2021/06/30 09:08:43;;;;;;;3.55;1.90;;;;;;;;;;5081684;28;20066;-74
2021/06/30 09:11:19;;;;;;;3.67;1.88;;;;;;;;;;5073093;28;20056;-74
2021/06/30 09:13:45;;;;;;;3.28;2.00;;;;;;;;;;5077577;28;20024;-73
2021/06/30 09:16:11;;;;;;;8.50;2.35;;;;;;;;;;5082348;28;20020;-74
2021/06/30 09:18:39;;;;;;;3.92;2.20;;;;;;;;;;5072833;28;20491;-73
2021/06/30 09:21:30;;;;;;;2.60;1.98;;;;;;;;;;5086549;28;20044;-73
2021/06/30 09:24:11;;;;;;;3.83;2.05;;;;;;;;;;5092560;28;20020;-73
2021/06/30 09:26:45;;;;;;;3.33;1.80;;;;;;;;;;5079333;28;20110;-71
2021/06/30 09:29:12;;;;;;;2.35;1.90;;;;;;;;;;5078619;28;20070;-72
2021/06/30 09:31:42;;;;;;;6.47;1.90;;;;;;;;;;5076234;28;20033;-71
2021/06/30 09:34:07;;;;;;;2.75;1.70;;;;;;;;;;5078541;28;20474;-72
2021/06/30 09:37:00;;;;;;;2.80;2.20;;;;;;;;;;5085833;28;20140;-73
2021/06/30 09:39:26;;;;;;;3.33;2.00;;;;;;;;;;5074171;28;20020;-73
2021/06/30 09:42:06;;;;;;;2.97;1.80;;;;;;;;;;5089849;28;20035;-73
2021/06/30 09:44:31;;;;;;;2.70;1.65;;;;;;;;;;5071841;28;20111;-72
2021/06/30 09:47:01;;;;;;;4.00;2.00;;;;;;;;;;5083157;28;20103;-74
2021/06/30 09:49:27;;;;;;;4.97;2.72;;;;;;;;;;5091568;28;20103;-70
2021/06/30 09:52:12;;;;;;;2.50;1.90;;;;;;;;;;5082451;28;20107;-70
2021/06/30 09:54:40;;;;;;;3.88;2.05;;;;;;;;;;5076421;28;20028;-71
2021/06/30 09:57:08;;;;;;;2.33;1.90;;;;;;;;;;5077120;28;20024;-72
2021/06/30 09:59:37;;;;;;;4.55;2.30;;;;;;;;;;5082456;28;20101;-70
2021/06/30 10:02:10;;;;;;;3.50;2.25;;;;;;;;;;5086555;28;20028;-72
2021/06/30 10:04:42;;;;;;;;;;;;;;;;;;5095570;28;20411;-72
2021/06/30 10:07:16;;;;;;;3.08;2.10;;;;;;;;;;5088660;28;19972;-71
2021/06/30 10:10:06;;;;;;;2.90;1.90;;;;;;;;;;5090480;28;20471;-71
2021/06/30 10:12:33;;;;;;;2.55;2.00;;;;;;;;;;5089919;28;20016;-71
2021/06/30 10:15:01;;;;;;;5.45;2.03;;;;;;;;;;5080261;28;20423;-72
2021/06/30 10:17:27;;;;;;;3.60;2.05;;;;;;;;;;5092443;28;20027;-72
2021/06/30 10:19:58;;;;;;;4.05;2.20;;;;;;;;;;5078301;28;20099;-72
2021/06/30 10:22:26;;;;;;;3.17;2.30;;;;;;;;;;5078685;28;20028;-71
2021/06/30 10:25:00;;;;;;;3.95;2.30;;;;;;;;;;5080596;28;20033;-71
2021/06/30 10:27:26;;;;;;;2.90;2.03;;;;;;;;;;5084816;28;20048;-70
2021/06/30 10:29:57;;;;;;;2.63;2.10;;;;;;;;;;5074176;28;20423;-72
2021/06/30 10:32:24;;;;;;;3.67;2.25;;;;;;;;;;5080335;28;20110;-72
2021/06/30 10:35:04;;;;;;;3.88;2.30;;;;;;;;;;5088682;28;20032;-72
2021/06/30 10:37:31;;;;;;;3.25;2.60;;;;;;;;;;5087175;28;20053;-74
2021/06/30 10:40:10;;;;;;;3.97;2.55;;;;;;;;;;5095475;28;20094;-72
2021/06/30 10:42:38;;;;;;;7.35;2.30;;;;;;;;;;5092638;28;20031;-72
2021/06/30 10:45:23;;;;;;;8.48;2.58;;;;;;;;;;5087036;28;20027;-73
2021/06/30 10:47:55;;;;;;;6.88;2.50;;;;;;;;;;5094754;28;20070;-71
2021/06/30 10:50:24;;;;;;;4.00;2.22;;;;;;;;;;5087198;28;20040;-71
2021/06/30 10:52:56;;;;;;;5.68;2.30;;;;;;;;;;5075227;28;20036;-74
2021/06/30 10:55:33;;;;;;;4.00;2.25;;;;;;;;;;5092305;28;20081;-71
2021/06/30 10:58:14;;;;;;;6.00;2.40;;;;;;;;;;5095496;28;20103;-71
2021/06/30 11:01:04;;;;;;;6.88;2.67;;;;;;;;;;5092057;28;20114;-71
2021/06/30 11:03:35;;;;;;;4.40;2.47;;;;;;;;;;5082257;28;20020;-74
2021/06/30 11:06:14;;;;;;;2.30;2.10;;;;;;;;;;5081256;28;20028;-73
2021/06/30 11:08:49;;;;;;;5.68;2.15;;;;;;;;;;5094833;28;20035;-72
2021/06/30 11:11:19;;;;;;;5.15;2.30;;;;;;;;;;5082706;28;20016;-72
2021/06/30 11:14:00;;;;;;;4.53;2.17;;;;;;;;;;5086841;28;20059;-70
2021/06/30 11:16:43;;;;;;;3.25;2.20;;;;;;;;;;5085446;28;20555;-70
2021/06/30 11:19:14;;;;;;;3.33;2.53;;;;;;;;;;5084157;28;20424;-70
2021/06/30 11:22:03;;;;;;;3.75;2.50;;;;;;;;;;5085305;28;20081;-70
2021/06/30 11:27:12;;;;;;;4.07;2.47;;;;;;;;;;5098560;28;20036;-72
2021/06/30 11:29:54;;;;;;;4.35;2.17;;;;;;;;;;5094912;28;20024;-71
2021/06/30 11:32:36;;;;;;;5.70;2.30;;;;;;;;;;5094539;28;20036;-72
2021/06/30 11:35:01;;;;;;;2.92;2.22;;;;;;;;;;5088759;28;20036;-72
2021/06/30 11:37:44;;;;;;;2.67;2.20;;;;;;;;;;5059144;28;20131;-72
2021/06/30 11:43:00;;;;;;;3.45;2.08;;;;;;;;;;5089570;28;20088;-72
2021/06/30 11:45:30;;;;;;;6.70;2.08;;;;;;;;;;5109154;28;20024;-72
2021/06/30 11:48:00;;;;;;;5.68;2.25;;;;;;;;;;5092992;28;20023;-71
2021/06/30 11:50:29;;;;;;;3.83;2.25;;;;;;;;;;5088552;28;20032;-72
2021/06/30 11:52:58;;;;;;;2.97;2.20;;;;;;;;;;5092734;28;20430;-71
2021/06/30 11:55:24;;;;;;;4.45;2.30;;;;;;;;;;5072628;28;20066;-72
2021/06/30 11:58:04;;;;;;;2.97;1.90;;;;;;;;;;5087978;28;20027;-72
2021/06/30 12:00:32;;;;;;;4.68;2.35;;;;;;;;;;5094262;28;20078;-72
2021/06/30 12:03:00;;;;;;;2.75;2.20;;;;;;;;;;5077172;28;20077;-72
2021/06/30 12:05:28;;;;;;;3.40;2.17;;;;;;;;;;5089088;28;20081;-73
2021/06/30 12:08:04;;;;;;;4.03;2.00;;;;;;;;;;5096528;28;20035;-73
2021/06/30 12:10:33;;;;;;;2.67;2.30;;;;;;;;;;5057826;28;20114;-72
2021/06/30 12:13:01;;;;;;;6.18;2.58;;;;;;;;;;5092944;28;20020;-70
2021/06/30 12:15:27;;;;;;;4.22;1.92;;;;;;;;;;5055744;28;20024;-76
2021/06/30 12:17:57;;;;;;;4.15;2.30;;;;;;;;;;5096753;28;20035;-71
2021/06/30 12:20:27;;;;;;;3.55;2.15;;;;;;;;;;5110611;28;20031;-70
2021/06/30 12:22:59;;;;;;;4.95;2.10;;;;;;;;;;5077456;28;20085;-72
2021/06/30 12:26:13;;;;;;;3.00;2.17;;;;;;;;;;5074581;28;20433;-71
2021/06/30 12:28:45;;;;;;;2.83;2.10;;;;;;;;;;5081200;28;20036;-72
2021/06/30 12:31:12;;;;;;;4.30;2.22;;;;;;;;;;5085292;28;20032;-73
2021/06/30 12:33:37;;;;;;;4.30;2.42;;;;;;;;;;5087763;28;20102;-69
2021/06/30 12:36:05;;;;;;;4.50;2.40;;;;;;;;;;5081191;28;20507;-78
2021/06/30 12:38:32;;;;;;;3.67;2.40;;;;;;;;;;5074531;28;20078;-79
2021/06/30 12:41:14;;;;;;;2.92;2.10;;;;;;;;;;5079100;28;20020;-78
2021/06/30 12:43:39;;;;;;;3.35;2.22;;;;;;;;;;5078225;28;20042;-77
2021/06/30 12:46:16;;;;;;;2.70;2.00;;;;;;;;;;5074672;28;20028;-76
2021/06/30 12:48:43;;;;;;;3.00;2.20;;;;;;;;;;5080895;28;20468;-76
2021/06/30 12:51:15;;;;;;;3.55;2.40;;;;;;;;;;5075839;28;20028;-75
2021/06/30 12:53:42;;;;;;;4.73;2.30;;;;;;;;;;5073436;28;20029;-77
2021/06/30 12:56:22;;;;;;;2.40;1.95;;;;;;;;;;5090915;28;20477;-77
2021/06/30 12:58:53;;;;;;;6.32;2.30;;;;;;;;;;5065704;28;20471;-74
2021/06/30 13:01:27;;;;;;;5.60;2.67;;;;;;;;;;5072640;28;20093;-78
2021/06/30 13:03:57;;;;;;;3.25;2.30;;;;;;;;;;5081044;28;20032;-76
2021/06/30 13:06:29;;;;;;;3.67;2.50;;;;;;;;;;5075845;28;20019;-76
2021/06/30 13:09:11;;;;;;;5.68;2.60;;;;;;;;;;5091617;28;20028;-78
2021/06/30 13:11:56;;;;;;;3.55;2.40;;;;;;;;;;5055316;28;20480;-76
2021/06/30 13:14:31;;;;;;;3.72;2.60;;;;;;;;;;5064939;28;20391;-77
2021/06/30 13:17:08;;;;;;;2.55;2.08;;;;;;;;;;5091104;28;20102;-74
2021/06/30 13:19:36;;;;;;;2.40;2.10;;;;;;;;;;5092471;28;20468;-75
2021/06/30 13:22:03;;;;;;;3.40;2.20;;;;;;;;;;5092878;28;20028;-75
2021/06/30 13:24:49;;;;;;;2.97;2.25;;;;;;;;;;5089450;28;20032;-75
2021/06/30 13:27:47;;;;;;;4.25;2.08;;;;;;;;;;5085523;28;20030;-73
2021/06/30 13:36:01;;;;;;;3.53;2.22;;;;;;;;;;5095040;28;20038;-74
2021/06/30 13:38:35;;;;;;;3.60;2.20;;;;;;;;;;5078163;28;20033;-75
2021/06/30 13:41:06;;;;;;;4.55;2.17;;;;;;;;;;5083538;28;20660;-75
2021/06/30 13:43:32;;;;;;;3.10;2.03;;;;;;;;;;5091805;28;20028;-74
2021/06/30 13:46:08;;;;;;;4.45;2.00;;;;;;;;;;5077100;28;20469;-74
2021/06/30 13:48:34;;;;;;;3.97;2.10;;;;;;;;;;5092959;28;20403;-72
2021/06/30 13:51:02;;;;;;;2.90;2.10;;;;;;;;;;5065149;28;20032;-73
2021/06/30 13:53:35;;;;;;;2.70;1.90;;;;;;;;;;5080523;28;20035;-74
2021/06/30 13:56:02;;;;;;;;;;;;;;;;;;5083944;28;20024;-73
2021/06/30 13:58:28;;;;;;;4.00;2.15;;;;;;;;;;5097161;28;19907;-74
2021/06/30 14:01:01;;;;;;;2.83;2.20;;;;;;;;;;5089665;28;20043;-73
2021/06/30 14:03:27;;;;;;;3.20;2.13;;;;;;;;;;5078870;28;20496;-74
2021/06/30 14:05:53;;;;;;;3.15;1.88;;;;;;;;;;5096464;28;20066;-75
2021/06/30 14:08:32;;;;;;;3.05;1.90;;;;;;;;;;5089520;28;20028;-72
2021/06/30 14:11:03;;;;;;;3.65;1.80;;;;;;;;;;5077637;28;20059;-73
2021/06/30 14:13:29;;;;;;;4.72;2.10;;;;;;;;;;5095407;28;20078;-73
2021/06/30 14:15:59;;;;;;;5.60;2.20;;;;;;;;;;5096164;28;20093;-73
2021/06/30 14:18:26;;;;;;;3.10;1.80;;;;;;;;;;5083391;28;20024;-72
2021/06/30 14:20:51;;;;;;;4.05;1.90;;;;;;;;;;5082117;28;20074;-72
2021/06/30 14:23:22;;;;;;;3.10;1.95;;;;;;;;;;5086738;28;20334;-72
2021/06/30 14:25:47;;;;;;;3.22;1.95;;;;;;;;;;5075487;28;20041;-73
2021/06/30 14:28:14;;;;;;;3.10;1.83;;;;;;;;;;5075049;28;20016;-73
2021/06/30 14:30:42;;;;;;;3.25;1.80;;;;;;;;;;5074542;28;20056;-73
2021/06/30 14:33:07;;;;;;;2.83;1.70;;;;;;;;;;5068374;28;20028;-74
2021/06/30 14:35:33;;;;;;;3.20;1.63;;;;;;;;;;5079568;28;20089;-70
2021/06/30 14:38:00;;;;;;;2.50;1.60;;;;;;;;;;5068611;28;20047;-71
2021/06/30 14:40:25;;;;;;;3.13;1.70;;;;;;;;;;5060113;28;20399;-72
2021/06/30 14:42:51;;;;;;;2.83;1.42;;;;;;;;;;5074852;28;20032;-72
2021/06/30 14:45:17;;;;;;;2.05;1.45;;;;;;;;;;5079579;28;20024;-72
2021/06/30 14:47:43;;;;;;;2.58;1.55;;;;;;;;;;5068637;28;20020;-72
2021/06/30 14:50:12;;;;;;;1.98;1.50;;;;;;;;;;5083556;28;20860;-72
2021/06/30 14:52:38;;;;;;;5.13;1.80;;;;;;;;;;5094003;28;20155;-73
2021/06/30 14:55:10;;;;;;;3.08;1.90;;;;;;;;;;5095503;28;20165;-73
2021/06/30 14:57:36;;;;;;;2.92;1.67;;;;;;;;;;5090064;28;20357;-73
2021/06/30 15:00:05;;;;;;;2.42;1.48;;;;;;;;;;5087084;28;20039;-73
2021/06/30 15:02:30;;;;;;;2.42;1.63;;;;;;;;;;5093456;28;20036;-73
2021/06/30 15:04:56;;;;;;;2.78;1.60;;;;;;;;;;5092522;28;20028;-72
2021/06/30 15:07:21;;;;;;;3.25;1.30;;;;;;;;;;5087584;28;20040;-74
2021/06/30 15:09:47;;;;;;;2.33;1.50;;;;;;;;;;5078341;28;20039;-73